sensor_id;sensor_type;location;lat;lon;timestamp;P1;durP1;ratioP1;P2;durP2;ratioP2
21899;SDS011;11114;50.658;12.704;2022-07-29T00:02:25;13.40;;;12.20;;
21899;SDS011;11114;50.658;12.704;2022-07-29T00:04:52;13.30;;;12.18;;
21899;SDS011;11114;50.658;12.704;2022-07-29T00:07:19;13.60;;;12.38;;
21899;SDS011;11114;50.658;12.704;2022-07-29T00:09:46;13.98;;;12.85;;
21899;SDS011;11114;50.658;12.704;2022-07-29T00:12:17;13.13;;;12.23;;
21899;SDS011;11114;50.658;12.704;2022-07-29T00:14:52;13.13;;;12.07;;
21899;SDS011;11114;50.658;12.704;2022-07-29T00:17:21;13.45;;;12.40;;
21899;SDS011;11114;50.658;12.704;2022-07-29T00:19:48;13.70;;;12.50;;
21899;SDS011;11114;50.658;12.704;2022-07-29T00:22:15;13.27;;;12.18;;
21899;SDS011;11114;50.658;12.704;2022-07-29T00:24:42;13.48;;;12.38;;
21899;SDS011;11114;50.658;12.704;2022-07-29T00:27:09;13.13;;;12.20;;
21899;SDS011;11114;50.658;12.704;2022-07-29T00:29:35;13.48;;;12.38;;
21899;SDS011;11114;50.658;12.704;2022-07-29T00:32:02;14.07;;;12.98;;
21899;SDS011;11114;50.658;12.704;2022-07-29T00:34:29;14.00;;;12.85;;
21899;SDS011;11114;50.658;12.704;2022-07-29T00:37:15;14.30;;;13.10;;
21899;SDS011;11114;50.658;12.704;2022-07-29T00:39:43;13.82;;;12.82;;
21899;SDS011;11114;50.658;12.704;2022-07-29T00:42:10;14.07;;;12.88;;
21899;SDS011;11114;50.658;12.704;2022-07-29T00:44:37;14.65;;;13.00;;
21899;SDS011;11114;50.658;12.704;2022-07-29T00:47:08;14.38;;;13.10;;
21899;SDS011;11114;50.658;12.704;2022-07-29T00:49:36;13.50;;;12.50;;
21899;SDS011;11114;50.658;12.704;2022-07-29T00:52:05;13.48;;;12.57;;
21899;SDS011;11114;50.658;12.704;2022-07-29T00:54:33;13.82;;;12.40;;
21899;SDS011;11114;50.658;12.704;2022-07-29T00:57:02;17.60;;;12.70;;
21899;SDS011;11114;50.658;12.704;2022-07-29T00:59:31;15.35;;;12.88;;
21899;SDS011;11114;50.658;12.704;2022-07-29T01:02:00;13.50;;;12.40;;
21899;SDS011;11114;50.658;12.704;2022-07-29T01:04:27;13.82;;;12.73;;
21899;SDS011;11114;50.658;12.704;2022-07-29T01:06:54;17.50;;;13.07;;
21899;SDS011;11114;50.658;12.704;2022-07-29T01:09:21;13.60;;;12.57;;
21899;SDS011;11114;50.658;12.704;2022-07-29T01:12:09;14.63;;;13.23;;
21899;SDS011;11114;50.658;12.704;2022-07-29T01:14:37;15.23;;;13.57;;
21899;SDS011;11114;50.658;12.704;2022-07-29T01:17:06;14.20;;;13.00;;
21899;SDS011;11114;50.658;12.704;2022-07-29T01:19:47;14.27;;;13.05;;
21899;SDS011;11114;50.658;12.704;2022-07-29T01:22:25;14.38;;;13.18;;
21899;SDS011;11114;50.658;12.704;2022-07-29T01:25:01;14.55;;;13.20;;
21899;SDS011;11114;50.658;12.704;2022-07-29T01:30:19;14.13;;;12.88;;
21899;SDS011;11114;50.658;12.704;2022-07-29T01:32:51;14.40;;;13.18;;
21899;SDS011;11114;50.658;12.704;2022-07-29T01:35:26;14.25;;;13.05;;
21899;SDS011;11114;50.658;12.704;2022-07-29T01:40:31;14.48;;;13.13;;
21899;SDS011;11114;50.658;12.704;2022-07-29T01:43:09;15.00;;;13.45;;
21899;SDS011;11114;50.658;12.704;2022-07-29T01:45:41;14.65;;;13.30;;
21899;SDS011;11114;50.658;12.704;2022-07-29T01:48:26;15.75;;;13.65;;
21899;SDS011;11114;50.658;12.704;2022-07-29T01:51:18;14.52;;;13.02;;
21899;SDS011;11114;50.658;12.704;2022-07-29T01:56:39;14.70;;;13.50;;
21899;SDS011;11114;50.658;12.704;2022-07-29T02:01:37;14.25;;;13.10;;
21899;SDS011;11114;50.658;12.704;2022-07-29T02:04:07;14.23;;;13.07;;
21899;SDS011;11114;50.658;12.704;2022-07-29T02:06:55;14.52;;;13.10;;
21899;SDS011;11114;50.658;12.704;2022-07-29T02:09:25;14.35;;;13.20;;
21899;SDS011;11114;50.658;12.704;2022-07-29T02:11:55;14.73;;;13.38;;
21899;SDS011;11114;50.658;12.704;2022-07-29T02:14:23;14.40;;;13.27;;
21899;SDS011;11114;50.658;12.704;2022-07-29T02:16:52;14.10;;;13.00;;
21899;SDS011;11114;50.658;12.704;2022-07-29T02:19:23;15.00;;;13.57;;
21899;SDS011;11114;50.658;12.704;2022-07-29T02:21:53;14.93;;;13.70;;
21899;SDS011;11114;50.658;12.704;2022-07-29T02:24:23;15.15;;;13.95;;
21899;SDS011;11114;50.658;12.704;2022-07-29T02:26:52;14.20;;;13.00;;
21899;SDS011;11114;50.658;12.704;2022-07-29T02:29:21;14.47;;;13.20;;
21899;SDS011;11114;50.658;12.704;2022-07-29T02:31:50;14.57;;;13.27;;
21899;SDS011;11114;50.658;12.704;2022-07-29T02:34:19;15.02;;;13.70;;
21899;SDS011;11114;50.658;12.704;2022-07-29T02:36:47;14.98;;;13.60;;
21899;SDS011;11114;50.658;12.704;2022-07-29T02:39:15;14.65;;;13.48;;
21899;SDS011;11114;50.658;12.704;2022-07-29T02:41:47;14.70;;;13.40;;
21899;SDS011;11114;50.658;12.704;2022-07-29T02:44:23;14.90;;;13.50;;
21899;SDS011;11114;50.658;12.704;2022-07-29T02:47:02;14.52;;;13.30;;
21899;SDS011;11114;50.658;12.704;2022-07-29T02:49:47;14.57;;;13.27;;
21899;SDS011;11114;50.658;12.704;2022-07-29T02:54:55;15.00;;;13.65;;
21899;SDS011;11114;50.658;12.704;2022-07-29T02:57:31;14.93;;;13.43;;
21899;SDS011;11114;50.658;12.704;2022-07-29T03:00:20;14.93;;;13.50;;
21899;SDS011;11114;50.658;12.704;2022-07-29T03:02:50;13.40;;;12.20;;
21899;SDS011;11114;50.658;12.704;2022-07-29T03:05:20;15.27;;;13.77;;
21899;SDS011;11114;50.658;12.704;2022-07-29T03:07:51;15.93;;;14.52;;
21899;SDS011;11114;50.658;12.704;2022-07-29T03:10:21;15.90;;;14.40;;
21899;SDS011;11114;50.658;12.704;2022-07-29T03:12:48;15.85;;;14.55;;
21899;SDS011;11114;50.658;12.704;2022-07-29T03:15:16;15.50;;;14.20;;
21899;SDS011;11114;50.658;12.704;2022-07-29T03:17:44;15.13;;;14.02;;
21899;SDS011;11114;50.658;12.704;2022-07-29T03:20:12;15.18;;;13.93;;
21899;SDS011;11114;50.658;12.704;2022-07-29T03:22:40;15.68;;;14.45;;
21899;SDS011;11114;50.658;12.704;2022-07-29T03:25:15;16.40;;;14.75;;
21899;SDS011;11114;50.658;12.704;2022-07-29T03:27:43;16.30;;;14.57;;
21899;SDS011;11114;50.658;12.704;2022-07-29T03:30:11;16.80;;;15.00;;
21899;SDS011;11114;50.658;12.704;2022-07-29T03:32:47;16.52;;;14.80;;
21899;SDS011;11114;50.658;12.704;2022-07-29T03:35:17;15.90;;;14.70;;
21899;SDS011;11114;50.658;12.704;2022-07-29T03:37:45;16.05;;;14.82;;
21899;SDS011;11114;50.658;12.704;2022-07-29T03:40:14;16.13;;;14.82;;
21899;SDS011;11114;50.658;12.704;2022-07-29T03:42:44;15.65;;;14.13;;
21899;SDS011;11114;50.658;12.704;2022-07-29T03:45:13;16.83;;;15.23;;
21899;SDS011;11114;50.658;12.704;2022-07-29T03:47:48;15.95;;;14.75;;
21899;SDS011;11114;50.658;12.704;2022-07-29T03:50:25;14.63;;;13.30;;
21899;SDS011;11114;50.658;12.704;2022-07-29T03:52:52;14.90;;;13.75;;
21899;SDS011;11114;50.658;12.704;2022-07-29T03:55:19;15.38;;;14.13;;
21899;SDS011;11114;50.658;12.704;2022-07-29T03:57:46;15.45;;;14.13;;
21899;SDS011;11114;50.658;12.704;2022-07-29T04:00:14;14.02;;;12.82;;
21899;SDS011;11114;50.658;12.704;2022-07-29T04:02:43;15.10;;;13.90;;
21899;SDS011;11114;50.658;12.704;2022-07-29T04:05:15;15.75;;;14.55;;
21899;SDS011;11114;50.658;12.704;2022-07-29T04:07:44;15.77;;;14.25;;
21899;SDS011;11114;50.658;12.704;2022-07-29T04:10:11;15.57;;;14.27;;
21899;SDS011;11114;50.658;12.704;2022-07-29T04:12:38;15.27;;;14.13;;
21899;SDS011;11114;50.658;12.704;2022-07-29T04:15:05;15.60;;;14.13;;
21899;SDS011;11114;50.658;12.704;2022-07-29T04:17:32;14.85;;;13.75;;
21899;SDS011;11114;50.658;12.704;2022-07-29T04:19:59;15.93;;;13.75;;
21899;SDS011;11114;50.658;12.704;2022-07-29T04:22:26;14.55;;;13.45;;
21899;SDS011;11114;50.658;12.704;2022-07-29T04:24:53;14.80;;;13.65;;
21899;SDS011;11114;50.658;12.704;2022-07-29T04:27:19;15.52;;;14.20;;
21899;SDS011;11114;50.658;12.704;2022-07-29T04:29:46;15.10;;;13.93;;
21899;SDS011;11114;50.658;12.704;2022-07-29T04:32:23;15.25;;;13.82;;
21899;SDS011;11114;50.658;12.704;2022-07-29T04:34:50;15.30;;;13.75;;
21899;SDS011;11114;50.658;12.704;2022-07-29T04:37:17;14.63;;;13.43;;
21899;SDS011;11114;50.658;12.704;2022-07-29T04:39:43;14.25;;;13.25;;
21899;SDS011;11114;50.658;12.704;2022-07-29T04:42:10;14.85;;;13.65;;
21899;SDS011;11114;50.658;12.704;2022-07-29T04:44:38;15.00;;;13.80;;
21899;SDS011;11114;50.658;12.704;2022-07-29T04:47:08;14.63;;;13.30;;
21899;SDS011;11114;50.658;12.704;2022-07-29T04:49:37;15.25;;;14.05;;
21899;SDS011;11114;50.658;12.704;2022-07-29T04:52:05;15.05;;;13.73;;
21899;SDS011;11114;50.658;12.704;2022-07-29T04:54:33;14.80;;;13.50;;
21899;SDS011;11114;50.658;12.704;2022-07-29T04:57:00;15.40;;;14.20;;
21899;SDS011;11114;50.658;12.704;2022-07-29T04:59:26;16.10;;;14.45;;
21899;SDS011;11114;50.658;12.704;2022-07-29T05:01:53;14.57;;;13.48;;
21899;SDS011;11114;50.658;12.704;2022-07-29T05:04:20;14.60;;;13.50;;
21899;SDS011;11114;50.658;12.704;2022-07-29T05:06:47;14.60;;;13.60;;
21899;SDS011;11114;50.658;12.704;2022-07-29T05:09:14;14.88;;;13.63;;
21899;SDS011;11114;50.658;12.704;2022-07-29T05:11:41;15.10;;;13.90;;
21899;SDS011;11114;50.658;12.704;2022-07-29T05:14:08;15.85;;;14.40;;
21899;SDS011;11114;50.658;12.704;2022-07-29T05:16:35;14.93;;;13.63;;
21899;SDS011;11114;50.658;12.704;2022-07-29T05:19:01;15.73;;;14.43;;
21899;SDS011;11114;50.658;12.704;2022-07-29T05:21:28;15.23;;;14.00;;
21899;SDS011;11114;50.658;12.704;2022-07-29T05:23:55;16.15;;;14.23;;
21899;SDS011;11114;50.658;12.704;2022-07-29T05:26:22;15.07;;;13.93;;
21899;SDS011;11114;50.658;12.704;2022-07-29T05:28:48;15.43;;;14.13;;
21899;SDS011;11114;50.658;12.704;2022-07-29T05:31:15;15.15;;;14.00;;
21899;SDS011;11114;50.658;12.704;2022-07-29T05:33:42;15.73;;;14.32;;
21899;SDS011;11114;50.658;12.704;2022-07-29T05:36:09;16.90;;;14.70;;
21899;SDS011;11114;50.658;12.704;2022-07-29T05:38:36;16.00;;;14.68;;
21899;SDS011;11114;50.658;12.704;2022-07-29T05:41:04;30.83;;;14.85;;
21899;SDS011;11114;50.658;12.704;2022-07-29T05:43:31;32.05;;;14.68;;
21899;SDS011;11114;50.658;12.704;2022-07-29T05:45:58;20.92;;;13.63;;
21899;SDS011;11114;50.658;12.704;2022-07-29T05:48:26;31.98;;;14.00;;
21899;SDS011;11114;50.658;12.704;2022-07-29T05:50:53;21.55;;;14.05;;
21899;SDS011;11114;50.658;12.704;2022-07-29T05:53:21;16.15;;;14.50;;
21899;SDS011;11114;50.658;12.704;2022-07-29T05:55:52;14.35;;;13.20;;
21899;SDS011;11114;50.658;12.704;2022-07-29T05:58:20;15.95;;;14.40;;
21899;SDS011;11114;50.658;12.704;2022-07-29T06:00:54;15.43;;;13.80;;
21899;SDS011;11114;50.658;12.704;2022-07-29T06:03:26;15.23;;;13.80;;
21899;SDS011;11114;50.658;12.704;2022-07-29T06:05:53;15.65;;;14.25;;
21899;SDS011;11114;50.658;12.704;2022-07-29T06:08:20;15.77;;;14.35;;
21899;SDS011;11114;50.658;12.704;2022-07-29T06:10:47;15.82;;;14.43;;
21899;SDS011;11114;50.658;12.704;2022-07-29T06:13:14;15.60;;;14.40;;
21899;SDS011;11114;50.658;12.704;2022-07-29T06:15:42;16.70;;;15.32;;
21899;SDS011;11114;50.658;12.704;2022-07-29T06:18:09;15.77;;;14.48;;
21899;SDS011;11114;50.658;12.704;2022-07-29T06:20:37;15.68;;;14.27;;
21899;SDS011;11114;50.658;12.704;2022-07-29T06:23:03;16.20;;;14.77;;
21899;SDS011;11114;50.658;12.704;2022-07-29T06:25:30;19.08;;;17.17;;
21899;SDS011;11114;50.658;12.704;2022-07-29T06:28:01;16.48;;;14.85;;
21899;SDS011;11114;50.658;12.704;2022-07-29T06:30:27;16.58;;;15.05;;
21899;SDS011;11114;50.658;12.704;2022-07-29T06:32:55;16.83;;;15.25;;
21899;SDS011;11114;50.658;12.704;2022-07-29T06:35:22;16.83;;;15.40;;
21899;SDS011;11114;50.658;12.704;2022-07-29T06:38:08;16.52;;;14.85;;
21899;SDS011;11114;50.658;12.704;2022-07-29T06:40:55;15.40;;;13.93;;
21899;SDS011;11114;50.658;12.704;2022-07-29T06:43:29;14.88;;;13.80;;
21899;SDS011;11114;50.658;12.704;2022-07-29T06:46:01;15.63;;;14.30;;
21899;SDS011;11114;50.658;12.704;2022-07-29T06:48:30;15.98;;;14.35;;
21899;SDS011;11114;50.658;12.704;2022-07-29T06:50:57;15.57;;;14.20;;
21899;SDS011;11114;50.658;12.704;2022-07-29T06:53:24;15.98;;;14.35;;
21899;SDS011;11114;50.658;12.704;2022-07-29T06:55:51;15.50;;;14.10;;
21899;SDS011;11114;50.658;12.704;2022-07-29T06:58:18;15.65;;;14.45;;
21899;SDS011;11114;50.658;12.704;2022-07-29T07:00:56;16.42;;;14.80;;
21899;SDS011;11114;50.658;12.704;2022-07-29T07:03:28;16.15;;;14.05;;
21899;SDS011;11114;50.658;12.704;2022-07-29T07:05:56;15.45;;;14.10;;
21899;SDS011;11114;50.658;12.704;2022-07-29T07:08:25;15.30;;;14.00;;
21899;SDS011;11114;50.658;12.704;2022-07-29T07:10:52;15.73;;;14.40;;
21899;SDS011;11114;50.658;12.704;2022-07-29T07:13:19;16.00;;;14.60;;
21899;SDS011;11114;50.658;12.704;2022-07-29T07:15:46;16.60;;;14.45;;
21899;SDS011;11114;50.658;12.704;2022-07-29T07:18:15;21.35;;;14.43;;
21899;SDS011;11114;50.658;12.704;2022-07-29T07:20:42;18.10;;;14.70;;
21899;SDS011;11114;50.658;12.704;2022-07-29T07:23:09;18.90;;;14.60;;
21899;SDS011;11114;50.658;12.704;2022-07-29T07:25:36;17.42;;;14.45;;
21899;SDS011;11114;50.658;12.704;2022-07-29T07:28:04;16.23;;;14.73;;
21899;SDS011;11114;50.658;12.704;2022-07-29T07:30:31;15.68;;;14.13;;
21899;SDS011;11114;50.658;12.704;2022-07-29T07:32:57;14.55;;;13.35;;
21899;SDS011;11114;50.658;12.704;2022-07-29T07:35:24;15.52;;;14.07;;
21899;SDS011;11114;50.658;12.704;2022-07-29T07:37:53;16.17;;;14.75;;
21899;SDS011;11114;50.658;12.704;2022-07-29T07:40:20;15.32;;;13.95;;
21899;SDS011;11114;50.658;12.704;2022-07-29T07:42:47;16.42;;;14.88;;
21899;SDS011;11114;50.658;12.704;2022-07-29T07:45:15;15.73;;;14.50;;
21899;SDS011;11114;50.658;12.704;2022-07-29T07:47:42;15.55;;;14.30;;
21899;SDS011;11114;50.658;12.704;2022-07-29T07:50:09;15.85;;;14.57;;
21899;SDS011;11114;50.658;12.704;2022-07-29T07:52:51;15.38;;;14.20;;
21899;SDS011;11114;50.658;12.704;2022-07-29T07:55:19;16.15;;;14.52;;
21899;SDS011;11114;50.658;12.704;2022-07-29T07:57:46;15.73;;;14.23;;
21899;SDS011;11114;50.658;12.704;2022-07-29T08:00:14;15.73;;;14.43;;
21899;SDS011;11114;50.658;12.704;2022-07-29T08:02:42;17.35;;;15.52;;
21899;SDS011;11114;50.658;12.704;2022-07-29T08:05:09;16.83;;;15.18;;
21899;SDS011;11114;50.658;12.704;2022-07-29T08:07:38;18.40;;;14.45;;
21899;SDS011;11114;50.658;12.704;2022-07-29T08:10:05;15.65;;;14.13;;
21899;SDS011;11114;50.658;12.704;2022-07-29T08:12:32;15.57;;;13.13;;
21899;SDS011;11114;50.658;12.704;2022-07-29T08:14:59;19.98;;;18.23;;
21899;SDS011;11114;50.658;12.704;2022-07-29T08:17:26;14.20;;;12.93;;
21899;SDS011;11114;50.658;12.704;2022-07-29T08:19:53;14.57;;;13.32;;
21899;SDS011;11114;50.658;12.704;2022-07-29T08:22:19;16.48;;;15.15;;
21899;SDS011;11114;50.658;12.704;2022-07-29T08:24:46;16.75;;;15.30;;
21899;SDS011;11114;50.658;12.704;2022-07-29T08:27:21;15.00;;;13.80;;
21899;SDS011;11114;50.658;12.704;2022-07-29T08:30:08;16.30;;;14.70;;
21899;SDS011;11114;50.658;12.704;2022-07-29T08:32:36;16.17;;;14.77;;
21899;SDS011;11114;50.658;12.704;2022-07-29T08:35:21;15.07;;;13.88;;
21899;SDS011;11114;50.658;12.704;2022-07-29T08:37:50;15.00;;;13.80;;
21899;SDS011;11114;50.658;12.704;2022-07-29T08:40:17;15.27;;;14.07;;
21899;SDS011;11114;50.658;12.704;2022-07-29T08:42:57;15.30;;;13.70;;
21899;SDS011;11114;50.658;12.704;2022-07-29T08:45:24;14.45;;;13.23;;
21899;SDS011;11114;50.658;12.704;2022-07-29T08:47:51;14.10;;;12.90;;
21899;SDS011;11114;50.658;12.704;2022-07-29T08:50:19;14.57;;;13.23;;
21899;SDS011;11114;50.658;12.704;2022-07-29T08:52:46;13.82;;;12.65;;
21899;SDS011;11114;50.658;12.704;2022-07-29T08:55:15;14.82;;;13.52;;
21899;SDS011;11114;50.658;12.704;2022-07-29T08:57:46;15.63;;;14.13;;
21899;SDS011;11114;50.658;12.704;2022-07-29T09:00:19;14.90;;;13.07;;
21899;SDS011;11114;50.658;12.704;2022-07-29T09:02:50;14.90;;;13.57;;
21899;SDS011;11114;50.658;12.704;2022-07-29T09:05:20;15.10;;;13.80;;
21899;SDS011;11114;50.658;12.704;2022-07-29T09:07:48;14.10;;;12.90;;
21899;SDS011;11114;50.658;12.704;2022-07-29T09:10:16;12.55;;;11.55;;
21899;SDS011;11114;50.658;12.704;2022-07-29T09:12:43;13.60;;;12.63;;
21899;SDS011;11114;50.658;12.704;2022-07-29T09:15:10;12.63;;;11.73;;
21899;SDS011;11114;50.658;12.704;2022-07-29T09:17:40;14.10;;;13.02;;
21899;SDS011;11114;50.658;12.704;2022-07-29T09:20:09;14.43;;;13.23;;
21899;SDS011;11114;50.658;12.704;2022-07-29T09:22:38;14.23;;;13.02;;
21899;SDS011;11114;50.658;12.704;2022-07-29T09:25:07;13.90;;;12.70;;
21899;SDS011;11114;50.658;12.704;2022-07-29T09:27:35;14.40;;;13.27;;
21899;SDS011;11114;50.658;12.704;2022-07-29T09:30:06;14.77;;;13.57;;
21899;SDS011;11114;50.658;12.704;2022-07-29T09:35:24;13.43;;;12.30;;
21899;SDS011;11114;50.658;12.704;2022-07-29T09:37:53;13.25;;;12.15;;
21899;SDS011;11114;50.658;12.704;2022-07-29T09:40:21;13.38;;;12.40;;
21899;SDS011;11114;50.658;12.704;2022-07-29T09:45:30;14.13;;;12.93;;
21899;SDS011;11114;50.658;12.704;2022-07-29T09:48:13;14.32;;;13.23;;
21899;SDS011;11114;50.658;12.704;2022-07-29T09:50:47;14.20;;;12.98;;
21899;SDS011;11114;50.658;12.704;2022-07-29T09:55:57;13.20;;;12.10;;
21899;SDS011;11114;50.658;12.704;2022-07-29T09:58:24;14.15;;;13.07;;
21899;SDS011;11114;50.658;12.704;2022-07-29T10:00:51;14.30;;;13.10;;
21899;SDS011;11114;50.658;12.704;2022-07-29T10:03:19;15.05;;;13.88;;
21899;SDS011;11114;50.658;12.704;2022-07-29T10:05:46;15.10;;;13.65;;
21899;SDS011;11114;50.658;12.704;2022-07-29T10:08:29;14.68;;;13.38;;
21899;SDS011;11114;50.658;12.704;2022-07-29T10:11:31;35.58;;;14.63;;
21899;SDS011;11114;50.658;12.704;2022-07-29T10:14:11;14.45;;;13.30;;
21899;SDS011;11114;50.658;12.704;2022-07-29T10:16:38;14.70;;;13.50;;
21899;SDS011;11114;50.658;12.704;2022-07-29T10:19:05;14.75;;;13.60;;
21899;SDS011;11114;50.658;12.704;2022-07-29T10:21:32;14.20;;;13.00;;
21899;SDS011;11114;50.658;12.704;2022-07-29T10:24:02;14.70;;;13.60;;
21899;SDS011;11114;50.658;12.704;2022-07-29T10:26:31;15.15;;;13.88;;
21899;SDS011;11114;50.658;12.704;2022-07-29T10:29:00;14.88;;;13.68;;
21899;SDS011;11114;50.658;12.704;2022-07-29T10:31:36;14.60;;;13.55;;
21899;SDS011;11114;50.658;12.704;2022-07-29T10:35:00;14.32;;;13.25;;
21899;SDS011;11114;50.658;12.704;2022-07-29T10:46:36;14.70;;;13.50;;
21899;SDS011;11114;50.658;12.704;2022-07-29T10:49:25;15.32;;;14.10;;
21899;SDS011;11114;50.658;12.704;2022-07-29T10:52:05;16.48;;;15.00;;
21899;SDS011;11114;50.658;12.704;2022-07-29T11:05:23;14.45;;;13.40;;
21899;SDS011;11114;50.658;12.704;2022-07-29T11:08:18;14.73;;;13.52;;
21899;SDS011;11114;50.658;12.704;2022-07-29T11:10:53;15.75;;;14.45;;
21899;SDS011;11114;50.658;12.704;2022-07-29T11:13:48;14.15;;;13.13;;
21899;SDS011;11114;50.658;12.704;2022-07-29T11:16:18;14.88;;;13.48;;
21899;SDS011;11114;50.658;12.704;2022-07-29T11:21:39;14.98;;;13.90;;
21899;SDS011;11114;50.658;12.704;2022-07-29T11:24:27;14.98;;;13.88;;
21899;SDS011;11114;50.658;12.704;2022-07-29T11:27:07;33.10;;;14.80;;
21899;SDS011;11114;50.658;12.704;2022-07-29T11:29:50;15.25;;;14.05;;
21899;SDS011;11114;50.658;12.704;2022-07-29T11:32:35;14.20;;;12.88;;
21899;SDS011;11114;50.658;12.704;2022-07-29T11:35:20;13.73;;;12.70;;
21899;SDS011;11114;50.658;12.704;2022-07-29T11:43:47;15.30;;;13.98;;
21899;SDS011;11114;50.658;12.704;2022-07-29T11:46:17;14.90;;;13.65;;
21899;SDS011;11114;50.658;12.704;2022-07-29T11:49:05;15.05;;;13.85;;
21899;SDS011;11114;50.658;12.704;2022-07-29T11:51:38;14.73;;;13.63;;
21899;SDS011;11114;50.658;12.704;2022-07-29T11:54:13;15.93;;;14.50;;
21899;SDS011;11114;50.658;12.704;2022-07-29T11:56:53;15.43;;;14.23;;
21899;SDS011;11114;50.658;12.704;2022-07-29T11:59:20;14.20;;;13.20;;
21899;SDS011;11114;50.658;12.704;2022-07-29T12:01:58;15.18;;;13.88;;
21899;SDS011;11114;50.658;12.704;2022-07-29T12:04:52;15.63;;;14.27;;
21899;SDS011;11114;50.658;12.704;2022-07-29T12:07:27;15.20;;;13.90;;
21899;SDS011;11114;50.658;12.704;2022-07-29T12:10:00;15.48;;;14.10;;
21899;SDS011;11114;50.658;12.704;2022-07-29T12:12:28;15.75;;;14.48;;
21899;SDS011;11114;50.658;12.704;2022-07-29T12:14:55;15.40;;;14.20;;
21899;SDS011;11114;50.658;12.704;2022-07-29T12:17:32;16.75;;;15.45;;
21899;SDS011;11114;50.658;12.704;2022-07-29T12:20:01;15.45;;;14.35;;
21899;SDS011;11114;50.658;12.704;2022-07-29T12:22:33;15.55;;;14.45;;
21899;SDS011;11114;50.658;12.704;2022-07-29T12:25:04;15.60;;;14.40;;
21899;SDS011;11114;50.658;12.704;2022-07-29T12:30:33;15.07;;;13.93;;
21899;SDS011;11114;50.658;12.704;2022-07-29T12:33:09;15.88;;;14.55;;
21899;SDS011;11114;50.658;12.704;2022-07-29T12:35:41;15.05;;;13.95;;
21899;SDS011;11114;50.658;12.704;2022-07-29T12:38:19;15.63;;;14.43;;
21899;SDS011;11114;50.658;12.704;2022-07-29T12:40:47;15.13;;;13.88;;
21899;SDS011;11114;50.658;12.704;2022-07-29T12:43:16;15.05;;;13.85;;
21899;SDS011;11114;50.658;12.704;2022-07-29T12:45:49;14.93;;;13.63;;
21899;SDS011;11114;50.658;12.704;2022-07-29T12:48:39;15.15;;;14.05;;
21899;SDS011;11114;50.658;12.704;2022-07-29T12:51:07;14.43;;;13.35;;
21899;SDS011;11114;50.658;12.704;2022-07-29T12:53:36;15.10;;;13.80;;
21899;SDS011;11114;50.658;12.704;2022-07-29T12:56:04;14.80;;;13.70;;
21899;SDS011;11114;50.658;12.704;2022-07-29T12:58:52;14.75;;;13.65;;
21899;SDS011;11114;50.658;12.704;2022-07-29T13:01:19;15.05;;;13.93;;
21899;SDS011;11114;50.658;12.704;2022-07-29T13:03:48;14.95;;;13.68;;
21899;SDS011;11114;50.658;12.704;2022-07-29T13:06:39;15.30;;;13.95;;
21899;SDS011;11114;50.658;12.704;2022-07-29T13:09:15;14.50;;;13.40;;
21899;SDS011;11114;50.658;12.704;2022-07-29T13:11:51;14.63;;;13.63;;
21899;SDS011;11114;50.658;12.704;2022-07-29T13:14:32;15.30;;;13.45;;
21899;SDS011;11114;50.658;12.704;2022-07-29T13:17:18;14.68;;;13.30;;
21899;SDS011;11114;50.658;12.704;2022-07-29T13:19:50;15.77;;;13.65;;
21899;SDS011;11114;50.658;12.704;2022-07-29T13:22:22;16.95;;;13.70;;
21899;SDS011;11114;50.658;12.704;2022-07-29T13:24:51;14.70;;;13.70;;
21899;SDS011;11114;50.658;12.704;2022-07-29T13:27:19;15.27;;;13.85;;
21899;SDS011;11114;50.658;12.704;2022-07-29T13:29:48;14.75;;;13.70;;
21899;SDS011;11114;50.658;12.704;2022-07-29T13:32:19;15.02;;;13.80;;
21899;SDS011;11114;50.658;12.704;2022-07-29T13:34:54;14.65;;;13.35;;
21899;SDS011;11114;50.658;12.704;2022-07-29T13:37:23;14.32;;;13.23;;
21899;SDS011;11114;50.658;12.704;2022-07-29T13:39:50;15.15;;;13.70;;
21899;SDS011;11114;50.658;12.704;2022-07-29T13:42:20;15.30;;;14.10;;
21899;SDS011;11114;50.658;12.704;2022-07-29T13:44:47;15.05;;;13.95;;
21899;SDS011;11114;50.658;12.704;2022-07-29T13:47:15;14.85;;;13.65;;
21899;SDS011;11114;50.658;12.704;2022-07-29T13:49:42;15.10;;;14.00;;
21899;SDS011;11114;50.658;12.704;2022-07-29T13:52:09;15.20;;;14.00;;
21899;SDS011;11114;50.658;12.704;2022-07-29T13:54:36;17.00;;;15.18;;
21899;SDS011;11114;50.658;12.704;2022-07-29T13:57:08;16.40;;;14.95;;
21899;SDS011;11114;50.658;12.704;2022-07-29T13:59:37;16.00;;;14.80;;
21899;SDS011;11114;50.658;12.704;2022-07-29T14:02:05;16.98;;;15.20;;
21899;SDS011;11114;50.658;12.704;2022-07-29T14:04:33;16.00;;;14.70;;
21899;SDS011;11114;50.658;12.704;2022-07-29T14:07:00;16.52;;;15.13;;
21899;SDS011;11114;50.658;12.704;2022-07-29T14:09:29;16.50;;;15.20;;
21899;SDS011;11114;50.658;12.704;2022-07-29T14:12:06;17.08;;;15.63;;
21899;SDS011;11114;50.658;12.704;2022-07-29T14:14:34;17.45;;;15.95;;
21899;SDS011;11114;50.658;12.704;2022-07-29T14:17:03;17.13;;;15.63;;
21899;SDS011;11114;50.658;12.704;2022-07-29T14:19:33;17.27;;;15.75;;
21899;SDS011;11114;50.658;12.704;2022-07-29T14:22:05;17.42;;;16.02;;
21899;SDS011;11114;50.658;12.704;2022-07-29T14:24:34;18.15;;;16.65;;
21899;SDS011;11114;50.658;12.704;2022-07-29T14:27:03;16.95;;;15.63;;
21899;SDS011;11114;50.658;12.704;2022-07-29T14:29:31;17.60;;;16.20;;
21899;SDS011;11114;50.658;12.704;2022-07-29T14:32:06;18.23;;;16.73;;
21899;SDS011;11114;50.658;12.704;2022-07-29T14:34:37;17.83;;;16.13;;
21899;SDS011;11114;50.658;12.704;2022-07-29T14:37:06;18.48;;;16.75;;
21899;SDS011;11114;50.658;12.704;2022-07-29T14:39:41;18.08;;;16.38;;
21899;SDS011;11114;50.658;12.704;2022-07-29T14:42:09;29.40;;;26.50;;
21899;SDS011;11114;50.658;12.704;2022-07-29T14:44:38;19.83;;;18.13;;
21899;SDS011;11114;50.658;12.704;2022-07-29T14:47:06;18.45;;;16.83;;
21899;SDS011;11114;50.658;12.704;2022-07-29T14:49:34;17.65;;;16.08;;
21899;SDS011;11114;50.658;12.704;2022-07-29T14:52:01;17.38;;;15.85;;
21899;SDS011;11114;50.658;12.704;2022-07-29T14:54:28;17.27;;;15.88;;
21899;SDS011;11114;50.658;12.704;2022-07-29T14:56:55;17.02;;;15.82;;
21899;SDS011;11114;50.658;12.704;2022-07-29T14:59:24;18.95;;;17.00;;
21899;SDS011;11114;50.658;12.704;2022-07-29T15:01:52;18.55;;;17.10;;
21899;SDS011;11114;50.658;12.704;2022-07-29T15:04:19;17.52;;;16.10;;
21899;SDS011;11114;50.658;12.704;2022-07-29T15:06:46;17.63;;;16.13;;
21899;SDS011;11114;50.658;12.704;2022-07-29T15:09:13;17.67;;;16.13;;
21899;SDS011;11114;50.658;12.704;2022-07-29T15:11:40;17.42;;;15.82;;
21899;SDS011;11114;50.658;12.704;2022-07-29T15:14:07;17.92;;;16.33;;
21899;SDS011;11114;50.658;12.704;2022-07-29T15:16:38;17.92;;;16.45;;
21899;SDS011;11114;50.658;12.704;2022-07-29T15:19:11;18.35;;;16.63;;
21899;SDS011;11114;50.658;12.704;2022-07-29T15:21:38;17.08;;;15.57;;
21899;SDS011;11114;50.658;12.704;2022-07-29T15:24:14;17.00;;;15.80;;